Time;durP1;ratioP1;P1;durP2;ratioP2;P2;SDS_P1;SDS_P2;PMS_P1;PMS_P2;Temp;Humidity;BMP_temperature;BMP_pressure;BME280_temperature;BME280_humidity;BME280_pressure;Samples;Min_cycle;Max_cycle;Signal;HPM_P1;HPM_P2
2023/05/18 00:01:15;;;;;;;24.80;23.20;;;;;;;;;;5036256;28;20560;-82
2023/05/18 00:03:43;;;;;;;25.43;23.57;;;;;;;;;;5036958;28;20418;-82
2023/05/18 00:06:10;;;;;;;23.87;22.13;;;;;;;;;;5035748;28;20421;-82
2023/05/18 00:08:37;;;;;;;24.37;22.53;;;;;;;;;;5036247;28;20487;-82
2023/05/18 00:11:04;;;;;;;24.33;22.43;;;;;;;;;;5036206;28;20429;-82
2023/05/18 00:13:31;;;;;;;24.23;22.30;;;;;;;;;;5036025;28;20434;-81
2023/05/18 00:15:59;;;;;;;23.60;22.00;;;;;;;;;;5036236;28;20452;-82
2023/05/18 00:18:27;;;;;;;24.73;23.10;;;;;;;;;;5036959;28;20516;-82
2023/05/18 00:20:57;;;;;;;25.00;22.90;;;;;;;;;;5036216;28;20503;-82
2023/05/18 00:23:24;;;;;;;25.63;23.83;;;;;;;;;;5036374;28;20430;-82
2023/05/18 00:25:51;;;;;;;26.30;24.20;;;;;;;;;;5036473;28;20426;-82
2023/05/18 00:28:18;;;;;;;25.43;23.20;;;;;;;;;;5035690;28;20441;-82
2023/05/18 00:30:45;;;;;;;25.60;23.47;;;;;;;;;;5036304;28;20964;-82
2023/05/18 00:33:12;;;;;;;24.97;23.03;;;;;;;;;;5039314;28;20422;-82
2023/05/18 00:35:41;;;;;;;24.45;22.73;;;;;;;;;;5039541;28;20422;-82
2023/05/18 00:38:08;;;;;;;23.52;22.13;;;;;;;;;;5039515;28;20217;-82
2023/05/18 00:40:35;;;;;;;24.17;22.33;;;;;;;;;;5040497;28;20251;-83
2023/05/18 00:43:02;;;;;;;25.53;23.33;;;;;;;;;;5039907;28;20488;-83
2023/05/18 00:45:29;;;;;;;23.60;22.03;;;;;;;;;;5039236;28;20432;-82
2023/05/18 00:47:56;;;;;;;24.20;22.40;;;;;;;;;;5039795;28;20542;-82
2023/05/18 00:50:24;;;;;;;24.37;22.47;;;;;;;;;;5039082;28;20587;-83
2023/05/18 00:52:53;;;;;;;24.02;22.33;;;;;;;;;;5040398;28;20445;-82
2023/05/18 00:55:21;;;;;;;24.67;22.77;;;;;;;;;;5040204;28;20243;-82
2023/05/18 00:57:48;;;;;;;25.57;23.23;;;;;;;;;;5038889;28;20460;-82
2023/05/18 01:00:16;;;;;;;23.88;21.90;;;;;;;;;;5039277;28;20545;-82
2023/05/18 01:02:44;;;;;;;23.47;21.97;;;;;;;;;;5039531;28;20294;-83
2023/05/18 01:05:12;;;;;;;23.77;22.15;;;;;;;;;;5039299;28;20447;-81
2023/05/18 01:07:41;;;;;;;23.40;21.67;;;;;;;;;;5038933;28;20232;-82
2023/05/18 01:10:10;;;;;;;24.05;22.30;;;;;;;;;;5038706;28;20464;-82
2023/05/18 01:12:40;;;;;;;24.60;22.57;;;;;;;;;;5038742;28;20259;-82
2023/05/18 01:15:09;;;;;;;23.27;21.80;;;;;;;;;;5039418;28;20420;-82
2023/05/18 01:17:39;;;;;;;23.53;21.60;;;;;;;;;;5038298;28;20259;-82
2023/05/18 01:20:21;;;;;;;23.17;21.35;;;;;;;;;;5038337;28;21073;-82
2023/05/18 01:23:08;;;;;;;23.33;21.50;;;;;;;;;;5038401;28;20236;-82
2023/05/18 01:25:47;;;;;;;24.17;22.55;;;;;;;;;;5038189;28;20959;-82
2023/05/18 01:28:17;;;;;;;23.17;21.50;;;;;;;;;;5039345;28;20247;-82
2023/05/18 01:30:45;;;;;;;23.33;21.42;;;;;;;;;;5038872;28;20462;-83
2023/05/18 01:33:13;;;;;;;23.37;21.20;;;;;;;;;;5039301;28;20727;-82
2023/05/18 01:35:46;;;;;;;24.17;21.73;;;;;;;;;;5038465;28;20439;-82
2023/05/18 01:38:13;;;;;;;24.00;22.10;;;;;;;;;;5039652;28;20525;-82
2023/05/18 01:40:46;;;;;;;22.88;21.17;;;;;;;;;;5038173;28;20529;-84
2023/05/18 01:43:16;;;;;;;23.13;21.50;;;;;;;;;;5036858;28;20299;-82
2023/05/18 01:45:46;;;;;;;22.88;21.25;;;;;;;;;;5037975;28;20439;-82
2023/05/18 01:48:17;;;;;;;22.93;20.73;;;;;;;;;;5035697;28;20262;-82
2023/05/18 01:50:47;;;;;;;22.27;20.77;;;;;;;;;;5035148;28;20454;-82
2023/05/18 01:53:18;;;;;;;22.48;20.58;;;;;;;;;;5035661;28;20510;-82
2023/05/18 01:55:46;;;;;;;22.00;20.43;;;;;;;;;;5035345;28;20204;-81
2023/05/18 01:58:14;;;;;;;23.98;21.13;;;;;;;;;;5036185;28;20460;-82
2023/05/18 02:00:41;;;;;;;21.23;19.67;;;;;;;;;;5035714;28;20648;-83
2023/05/18 02:03:09;;;;;;;21.25;19.70;;;;;;;;;;5035283;28;20524;-82
2023/05/18 02:05:36;;;;;;;21.52;19.80;;;;;;;;;;5035011;28;20197;-82
2023/05/18 02:08:03;;;;;;;21.58;20.27;;;;;;;;;;5036356;28;20260;-83
2023/05/18 02:10:30;;;;;;;23.05;20.95;;;;;;;;;;5036118;28;20228;-82
2023/05/18 02:12:57;;;;;;;22.40;20.80;;;;;;;;;;5029896;28;20267;-82
2023/05/18 02:15:24;;;;;;;22.55;20.95;;;;;;;;;;5033753;28;20459;-82
2023/05/18 02:17:56;;;;;;;22.80;21.20;;;;;;;;;;5036927;28;20240;-83
2023/05/18 02:20:25;;;;;;;21.70;20.35;;;;;;;;;;5037066;28;20514;-82
2023/05/18 02:22:52;;;;;;;21.83;20.27;;;;;;;;;;5036886;28;20294;-83
2023/05/18 02:25:19;;;;;;;21.43;20.00;;;;;;;;;;5046723;28;20181;-83
2023/05/18 02:27:46;;;;;;;23.88;21.45;;;;;;;;;;5055937;28;20486;-83
2023/05/18 02:30:14;;;;;;;21.33;19.80;;;;;;;;;;5055587;28;20525;-82
2023/05/18 02:32:41;;;;;;;23.10;21.30;;;;;;;;;;5045925;28;20986;-83
2023/05/18 02:35:09;;;;;;;23.08;21.23;;;;;;;;;;5042360;28;20284;-83
2023/05/18 02:37:38;;;;;;;23.23;21.10;;;;;;;;;;5041771;28;20204;-83
2023/05/18 02:40:07;;;;;;;21.83;20.63;;;;;;;;;;5042265;28;20474;-83
2023/05/18 02:42:34;;;;;;;21.17;19.97;;;;;;;;;;5041437;28;21042;-82
2023/05/18 02:45:02;;;;;;;22.90;20.80;;;;;;;;;;5041895;28;20484;-82
2023/05/18 02:47:29;;;;;;;21.63;20.25;;;;;;;;;;5041295;28;20212;-83
2023/05/18 02:49:56;;;;;;;21.95;20.73;;;;;;;;;;5040755;28;20243;-82
2023/05/18 02:52:23;;;;;;;21.15;19.70;;;;;;;;;;5041261;28;20711;-83
2023/05/18 02:54:53;;;;;;;22.17;20.77;;;;;;;;;;5040576;28;20205;-82
2023/05/18 02:57:20;;;;;;;21.52;20.15;;;;;;;;;;5040594;28;21002;-82
2023/05/18 02:59:47;;;;;;;21.48;19.98;;;;;;;;;;5040570;28;20607;-83
2023/05/18 03:02:15;;;;;;;21.63;20.43;;;;;;;;;;5040316;28;20251;-82
2023/05/18 03:04:42;;;;;;;22.02;20.23;;;;;;;;;;5039708;28;20514;-83
2023/05/18 03:07:09;;;;;;;22.63;20.73;;;;;;;;;;5039818;28;20193;-82
2023/05/18 03:09:36;;;;;;;22.65;20.65;;;;;;;;;;5040117;28;20471;-83
2023/05/18 03:12:04;;;;;;;22.15;20.65;;;;;;;;;;5040406;28;20224;-82
2023/05/18 03:14:31;;;;;;;22.23;20.30;;;;;;;;;;5039242;28;20548;-83
2023/05/18 03:16:59;;;;;;;21.77;20.10;;;;;;;;;;5039277;28;20451;-82
2023/05/18 03:19:26;;;;;;;22.40;20.83;;;;;;;;;;5038936;28;20292;-83
2023/05/18 03:21:54;;;;;;;22.10;20.50;;;;;;;;;;5039889;28;20563;-83
2023/05/18 03:24:21;;;;;;;22.15;20.17;;;;;;;;;;5038770;28;20463;-83
2023/05/18 03:26:48;;;;;;;21.10;19.27;;;;;;;;;;5038540;28;20201;-83
2023/05/18 03:29:16;;;;;;;22.63;20.73;;;;;;;;;;5038562;28;20212;-83
2023/05/18 03:31:43;;;;;;;22.50;20.80;;;;;;;;;;5038823;28;20208;-83
2023/05/18 03:34:10;;;;;;;22.10;20.40;;;;;;;;;;5038133;28;20209;-83
2023/05/18 03:36:37;;;;;;;22.47;20.73;;;;;;;;;;5038407;28;20480;-80
2023/05/18 03:39:05;;;;;;;21.98;20.52;;;;;;;;;;5047965;28;20471;-80
2023/05/18 03:41:32;;;;;;;21.02;19.92;;;;;;;;;;5042146;28;20225;-81
2023/05/18 03:43:59;;;;;;;23.17;21.60;;;;;;;;;;5041988;28;20228;-79
2023/05/18 03:46:27;;;;;;;21.63;20.13;;;;;;;;;;5040006;28;20488;-79
2023/05/18 03:48:54;;;;;;;21.70;20.17;;;;;;;;;;5040594;28;20839;-79
2023/05/18 03:51:21;;;;;;;22.13;20.38;;;;;;;;;;5047434;28;20828;-80
2023/05/18 03:53:48;;;;;;;22.95;20.83;;;;;;;;;;5043037;28;20262;-79
2023/05/18 03:56:15;;;;;;;21.42;19.90;;;;;;;;;;5040473;28;20624;-79
2023/05/18 03:58:43;;;;;;;21.40;19.57;;;;;;;;;;5041482;28;20247;-79
2023/05/18 04:01:10;;;;;;;22.00;20.42;;;;;;;;;;5039995;28;20919;-80
2023/05/18 04:03:39;;;;;;;21.60;19.77;;;;;;;;;;5039476;28;20571;-79
2023/05/18 04:06:09;;;;;;;22.63;20.77;;;;;;;;;;5037819;28;20235;-80
2023/05/18 04:08:36;;;;;;;21.47;20.00;;;;;;;;;;5042834;28;20422;-79
2023/05/18 04:11:03;;;;;;;21.87;20.33;;;;;;;;;;5041699;28;20549;-80
2023/05/18 04:13:30;;;;;;;21.50;20.20;;;;;;;;;;5042104;28;20447;-79
2023/05/18 04:15:58;;;;;;;20.55;19.45;;;;;;;;;;5041714;28;20200;-79
2023/05/18 04:18:29;;;;;;;21.10;19.60;;;;;;;;;;5042142;28;20219;-78
2023/05/18 04:20:57;;;;;;;22.07;20.30;;;;;;;;;;5041978;28;20470;-80
2023/05/18 04:23:24;;;;;;;20.90;19.50;;;;;;;;;;5042491;28;21247;-79
2023/05/18 04:25:51;;;;;;;22.03;20.33;;;;;;;;;;5043059;28;20448;-80
2023/05/18 04:28:18;;;;;;;20.63;19.20;;;;;;;;;;5042205;28;21037;-80
2023/05/18 04:30:46;;;;;;;20.40;19.20;;;;;;;;;;5041614;28;20467;-79
2023/05/18 04:33:14;;;;;;;22.02;20.42;;;;;;;;;;5040819;28;20448;-80
2023/05/18 04:35:41;;;;;;;20.90;19.60;;;;;;;;;;5043372;28;20205;-79
2023/05/18 04:38:10;;;;;;;23.30;21.47;;;;;;;;;;5047185;28;20463;-81
2023/05/18 04:40:41;;;;;;;21.67;20.27;;;;;;;;;;5047890;28;20562;-80
2023/05/18 04:43:08;;;;;;;21.47;19.97;;;;;;;;;;5046648;28;20479;-80
2023/05/18 04:45:35;;;;;;;20.93;19.30;;;;;;;;;;5046300;28;20484;-79
2023/05/18 04:48:02;;;;;;;21.60;19.80;;;;;;;;;;5046798;28;20508;-80
2023/05/18 04:50:29;;;;;;;21.63;19.80;;;;;;;;;;5045670;28;20634;-80
2023/05/18 04:52:57;;;;;;;22.10;19.92;;;;;;;;;;5047141;28;20476;-80
2023/05/18 04:55:26;;;;;;;20.20;18.90;;;;;;;;;;5046278;28;20205;-80
2023/05/18 04:57:55;;;;;;;20.47;19.27;;;;;;;;;;5045052;28;20515;-80
2023/05/18 05:00:22;;;;;;;21.43;19.77;;;;;;;;;;5043864;28;20508;-80
2023/05/18 05:02:50;;;;;;;21.58;20.15;;;;;;;;;;5045876;28;20489;-80
2023/05/18 05:05:17;;;;;;;21.80;20.27;;;;;;;;;;5045056;28;20251;-80
2023/05/18 05:07:44;;;;;;;22.80;21.30;;;;;;;;;;5044502;28;20530;-80
2023/05/18 05:10:11;;;;;;;21.07;19.67;;;;;;;;;;5042932;28;20498;-80
2023/05/18 05:12:40;;;;;;;22.37;20.63;;;;;;;;;;5042823;28;20466;-80
2023/05/18 05:15:08;;;;;;;21.67;20.07;;;;;;;;;;5042950;28;20461;-80
2023/05/18 05:17:35;;;;;;;22.03;20.07;;;;;;;;;;5043279;28;20438;-80
2023/05/18 05:20:02;;;;;;;21.30;19.93;;;;;;;;;;5042522;28;20466;-80
2023/05/18 05:22:29;;;;;;;21.03;19.40;;;;;;;;;;5043385;28;20480;-80
2023/05/18 05:24:56;;;;;;;21.13;19.43;;;;;;;;;;5043266;28;20512;-79
2023/05/18 05:27:25;;;;;;;21.23;19.80;;;;;;;;;;5042509;28;20899;-80
2023/05/18 05:29:53;;;;;;;21.20;19.80;;;;;;;;;;5041603;28;20460;-79
2023/05/18 05:32:20;;;;;;;21.83;20.33;;;;;;;;;;5042673;28;20451;-79
2023/05/18 05:34:49;;;;;;;22.13;20.20;;;;;;;;;;5042662;28;20448;-80
2023/05/18 05:37:16;;;;;;;21.37;19.40;;;;;;;;;;5041665;28;20513;-80
2023/05/18 05:39:43;;;;;;;21.20;19.63;;;;;;;;;;5041584;28;20553;-79
2023/05/18 05:42:10;;;;;;;21.63;19.50;;;;;;;;;;5041752;28;20480;-80
2023/05/18 05:44:38;;;;;;;20.20;19.10;;;;;;;;;;5046483;28;20430;-79
2023/05/18 05:47:06;;;;;;;21.50;19.77;;;;;;;;;;5046774;28;20430;-80
2023/05/18 05:49:34;;;;;;;21.60;20.00;;;;;;;;;;5043101;28;20446;-79
2023/05/18 05:52:01;;;;;;;20.80;19.37;;;;;;;;;;5043309;28;20468;-79
2023/05/18 05:54:28;;;;;;;21.40;19.80;;;;;;;;;;5041434;28;20410;-79
2023/05/18 05:56:55;;;;;;;21.17;19.50;;;;;;;;;;5041658;28;20456;-79
2023/05/18 05:59:23;;;;;;;22.57;20.90;;;;;;;;;;5040685;28;20449;-79
2023/05/18 06:01:50;;;;;;;21.50;20.10;;;;;;;;;;5040415;28;20481;-79
2023/05/18 06:04:19;;;;;;;23.00;21.10;;;;;;;;;;5040883;28;20517;-79
2023/05/18 06:06:46;;;;;;;22.53;20.63;;;;;;;;;;5039670;28;20934;-80
2023/05/18 06:09:13;;;;;;;24.70;22.70;;;;;;;;;;5034877;28;20434;-80
2023/05/18 06:11:40;;;;;;;22.13;20.20;;;;;;;;;;5045053;28;20537;-80
2023/05/18 06:14:07;;;;;;;21.10;19.70;;;;;;;;;;5046505;28;20435;-80
2023/05/18 06:16:34;;;;;;;21.97;20.50;;;;;;;;;;5045503;28;20965;-80
2023/05/18 06:19:01;;;;;;;21.73;20.13;;;;;;;;;;5045026;28;20466;-80
2023/05/18 06:21:30;;;;;;;22.33;20.20;;;;;;;;;;5044872;28;20410;-80
2023/05/18 06:23:57;;;;;;;23.20;21.80;;;;;;;;;;5044760;28;20529;-80
2023/05/18 06:26:24;;;;;;;23.40;21.10;;;;;;;;;;5044268;28;20448;-80
2023/05/18 06:28:51;;;;;;;23.37;21.37;;;;;;;;;;5043725;28;20421;-80
2023/05/18 06:31:18;;;;;;;21.80;20.20;;;;;;;;;;5041290;28;20531;-80
2023/05/18 06:33:45;;;;;;;21.70;20.20;;;;;;;;;;5043487;28;20442;-80
2023/05/18 06:36:12;;;;;;;22.13;20.30;;;;;;;;;;5042224;28;20480;-80
2023/05/18 06:38:40;;;;;;;21.93;20.27;;;;;;;;;;5042539;28;21170;-80
2023/05/18 06:41:07;;;;;;;22.00;20.40;;;;;;;;;;5042277;28;20833;-80
2023/05/18 06:43:35;;;;;;;21.93;20.40;;;;;;;;;;5041929;28;20462;-79
2023/05/18 06:46:02;;;;;;;23.73;21.57;;;;;;;;;;5042144;28;20450;-79
2023/05/18 06:48:29;;;;;;;27.03;21.60;;;;;;;;;;5041964;28;20422;-80
2023/05/18 06:50:56;;;;;;;23.70;22.10;;;;;;;;;;5041098;28;20483;-79
2023/05/18 06:53:23;;;;;;;23.07;20.73;;;;;;;;;;5039979;28;20474;-80
2023/05/18 06:55:52;;;;;;;23.57;21.90;;;;;;;;;;5037942;28;20422;-78
2023/05/18 06:58:20;;;;;;;23.67;21.90;;;;;;;;;;5038235;28;20517;-78
2023/05/18 07:00:48;;;;;;;22.23;20.80;;;;;;;;;;5036625;28;20825;-79
2023/05/18 07:03:15;;;;;;;22.83;21.10;;;;;;;;;;5049514;28;20506;-79
2023/05/18 07:05:42;;;;;;;22.17;20.80;;;;;;;;;;5053264;28;20466;-78
2023/05/18 07:08:09;;;;;;;23.90;22.13;;;;;;;;;;5052372;28;20474;-79
2023/05/18 07:10:36;;;;;;;23.60;21.90;;;;;;;;;;5039502;28;20457;-79
2023/05/18 07:13:04;;;;;;;21.90;20.47;;;;;;;;;;5038451;28;20447;-78
2023/05/18 07:15:31;;;;;;;21.93;20.40;;;;;;;;;;5038047;28;20505;-79
2023/05/18 07:17:58;;;;;;;22.30;21.00;;;;;;;;;;5037153;28;20844;-80
2023/05/18 07:20:25;;;;;;;22.37;21.00;;;;;;;;;;5035632;28;20520;-79
2023/05/18 07:22:53;;;;;;;22.20;20.80;;;;;;;;;;5037722;28;20418;-83
2023/05/18 07:25:21;;;;;;;22.67;20.73;;;;;;;;;;5038746;28;21036;-83
2023/05/18 07:27:48;;;;;;;23.00;21.23;;;;;;;;;;5038824;28;20444;-83
2023/05/18 07:30:16;;;;;;;22.40;20.80;;;;;;;;;;5036732;28;20473;-83
2023/05/18 07:32:44;;;;;;;22.33;20.70;;;;;;;;;;5024150;28;20477;-85
2023/05/18 07:35:11;;;;;;;22.27;20.47;;;;;;;;;;5029238;28;21383;-84
2023/05/18 07:37:38;;;;;;;22.57;20.70;;;;;;;;;;5032288;28;20432;-84
2023/05/18 07:40:06;;;;;;;22.00;20.67;;;;;;;;;;5014713;28;20484;-84
2023/05/18 07:42:33;;;;;;;22.77;21.10;;;;;;;;;;5025707;28;20444;-84
2023/05/18 07:45:00;;;;;;;22.03;20.50;;;;;;;;;;5032316;28;20464;-85
2023/05/18 07:47:28;;;;;;;22.63;21.03;;;;;;;;;;5021183;28;20452;-84
2023/05/18 07:49:55;;;;;;;23.27;21.60;;;;;;;;;;5019613;28;21031;-88
2023/05/18 07:52:22;;;;;;;22.70;21.20;;;;;;;;;;5019687;28;20458;-84
2023/05/18 07:54:49;;;;;;;22.30;20.27;;;;;;;;;;5021590;28;20813;-79
2023/05/18 07:57:16;;;;;;;22.27;20.67;;;;;;;;;;5018174;28;20953;-82
2023/05/18 07:59:43;;;;;;;23.60;21.50;;;;;;;;;;5018582;28;20508;-83
2023/05/18 08:02:10;;;;;;;30.63;27.90;;;;;;;;;;5018439;28;20497;-78
2023/05/18 08:04:39;;;;;;;22.13;20.27;;;;;;;;;;5018347;28;20484;-79
2023/05/18 08:07:05;;;;;;;26.23;24.10;;;;;;;;;;5024606;28;20438;-78
2023/05/18 08:09:33;;;;;;;22.13;20.33;;;;;;;;;;5017993;28;20499;-78
2023/05/18 08:12:00;;;;;;;21.47;19.87;;;;;;;;;;5019222;28;20472;-78
2023/05/18 08:14:27;;;;;;;21.30;19.90;;;;;;;;;;5019663;28;20506;-80
2023/05/18 08:16:54;;;;;;;22.97;21.10;;;;;;;;;;5018975;28;20456;-77
2023/05/18 08:19:21;;;;;;;21.97;20.57;;;;;;;;;;5019968;28;20446;-79
2023/05/18 08:21:49;;;;;;;22.53;20.63;;;;;;;;;;5018702;28;20466;-86
2023/05/18 08:24:16;;;;;;;22.43;20.83;;;;;;;;;;5018259;28;20455;-79
2023/05/18 08:26:43;;;;;;;22.40;20.10;;;;;;;;;;5018701;28;20464;-80
2023/05/18 08:29:10;;;;;;;22.87;21.27;;;;;;;;;;5020728;28;20538;-84
2023/05/18 08:31:37;;;;;;;23.77;21.50;;;;;;;;;;5017302;28;20765;-84
2023/05/18 08:34:05;;;;;;;22.27;20.50;;;;;;;;;;5016320;28;20442;-85
2023/05/18 08:36:32;;;;;;;23.03;21.10;;;;;;;;;;5029983;28;20437;-80
2023/05/18 08:39:00;;;;;;;22.80;21.10;;;;;;;;;;5040287;28;20452;-80
2023/05/18 08:41:30;;;;;;;21.23;19.83;;;;;;;;;;5040908;28;20426;-80
2023/05/18 08:44:01;;;;;;;21.20;19.80;;;;;;;;;;5040808;28;20487;-81
2023/05/18 08:46:30;;;;;;;22.10;20.60;;;;;;;;;;5040030;28;20435;-80
2023/05/18 08:48:59;;;;;;;22.33;20.77;;;;;;;;;;5039756;28;20449;-80
2023/05/18 08:51:31;;;;;;;22.37;20.67;;;;;;;;;;5039239;28;20433;-83
2023/05/18 08:54:01;;;;;;;22.33;20.93;;;;;;;;;;5036204;28;20403;-80
2023/05/18 08:56:31;;;;;;;23.80;21.77;;;;;;;;;;5036915;28;20432;-80
2023/05/18 08:58:58;;;;;;;22.33;20.90;;;;;;;;;;5037745;28;20451;-82
2023/05/18 09:01:27;;;;;;;23.07;21.47;;;;;;;;;;5039471;28;20455;-81
2023/05/18 09:03:54;;;;;;;23.47;21.77;;;;;;;;;;5043123;28;20457;-82
2023/05/18 09:06:23;;;;;;;21.57;20.33;;;;;;;;;;5043429;28;20426;-82
2023/05/18 09:08:50;;;;;;;23.80;22.20;;;;;;;;;;5042759;28;20452;-81
2023/05/18 09:11:20;;;;;;;24.13;22.27;;;;;;;;;;5042215;28;20443;-81
2023/05/18 09:13:49;;;;;;;22.70;21.13;;;;;;;;;;5042395;28;20539;-81
2023/05/18 09:16:16;;;;;;;23.50;21.60;;;;;;;;;;5037109;28;20438;-87
2023/05/18 09:18:43;;;;;;;22.50;20.90;;;;;;;;;;5035623;28;20492;-86
2023/05/18 09:21:10;;;;;;;22.20;20.90;;;;;;;;;;5036308;28;20439;-86
2023/05/18 09:23:38;;;;;;;23.60;21.80;;;;;;;;;;5035980;28;20430;-81
2023/05/18 09:26:07;;;;;;;25.07;22.80;;;;;;;;;;5037934;28;20492;-79
2023/05/18 09:28:38;;;;;;;24.00;22.20;;;;;;;;;;5038318;28;20461;-79
2023/05/18 09:31:06;;;;;;;25.00;23.20;;;;;;;;;;5038382;28;20979;-82
2023/05/18 09:33:34;;;;;;;22.17;20.87;;;;;;;;;;5037651;28;20479;-79
2023/05/18 09:36:01;;;;;;;25.00;23.30;;;;;;;;;;5037126;28;20498;-88
2023/05/18 09:38:29;;;;;;;24.57;22.53;;;;;;;;;;5034813;28;20493;-88
2023/05/18 09:40:56;;;;;;;24.53;22.93;;;;;;;;;;5035740;28;20480;-88
2023/05/18 09:43:22;;;;;;;23.33;21.73;;;;;;;;;;5034341;28;20750;-92
2023/05/18 09:45:51;;;;;;;24.50;22.60;;;;;;;;;;5033639;28;20450;-89
2023/05/18 09:48:18;;;;;;;23.00;21.43;;;;;;;;;;5035693;28;20422;-81
2023/05/18 09:50:45;;;;;;;24.30;22.27;;;;;;;;;;5038371;28;20495;-82
2023/05/18 09:53:13;;;;;;;23.10;21.30;;;;;;;;;;5038797;28;20516;-81
2023/05/18 09:55:45;;;;;;;24.10;22.30;;;;;;;;;;5038366;28;20426;-82
2023/05/18 09:58:12;;;;;;;22.37;20.80;;;;;;;;;;5038479;28;20416;-86
2023/05/18 10:00:42;;;;;;;24.43;22.50;;;;;;;;;;5039152;28;20491;-88
2023/05/18 10:03:21;;;;;;;24.07;22.37;;;;;;;;;;5046251;28;20502;-85
2023/05/18 10:05:48;;;;;;;24.53;22.83;;;;;;;;;;5038314;28;20848;-85
2023/05/18 10:08:15;;;;;;;25.50;23.60;;;;;;;;;;5040951;28;20456;-80
2023/05/18 10:10:44;;;;;;;23.80;22.20;;;;;;;;;;5040340;28;20446;-84
2023/05/18 10:13:13;;;;;;;25.57;23.43;;;;;;;;;;5041359;28;20422;-81
2023/05/18 10:15:46;;;;;;;23.97;22.30;;;;;;;;;;5039922;28;20587;-87
2023/05/18 10:18:14;;;;;;;23.73;22.13;;;;;;;;;;5041334;28;20526;-81
2023/05/18 10:20:43;;;;;;;23.53;21.93;;;;;;;;;;5041618;28;20471;-83
2023/05/18 10:23:10;;;;;;;24.63;22.63;;;;;;;;;;5043326;28;20426;-81
2023/05/18 10:25:38;;;;;;;25.17;23.17;;;;;;;;;;5041776;28;20495;-81
2023/05/18 10:28:07;;;;;;;24.20;22.50;;;;;;;;;;5043520;28;20462;-80
2023/05/18 10:30:35;;;;;;;24.73;22.90;;;;;;;;;;5042845;28;20438;-81
2023/05/18 10:33:03;;;;;;;25.33;23.23;;;;;;;;;;5044825;28;20448;-81
2023/05/18 10:35:30;;;;;;;23.93;22.20;;;;;;;;;;5045663;28;20459;-81
2023/05/18 10:37:59;;;;;;;25.07;23.37;;;;;;;;;;5046367;28;20445;-81
2023/05/18 10:40:27;;;;;;;23.70;22.30;;;;;;;;;;5043902;28;20468;-81
2023/05/18 10:42:57;;;;;;;25.07;23.57;;;;;;;;;;5044418;28;20422;-81
2023/05/18 10:45:24;;;;;;;25.33;23.50;;;;;;;;;;5044895;28;20488;-81
2023/05/18 10:47:53;;;;;;;25.40;23.60;;;;;;;;;;5043326;28;20467;-81
2023/05/18 10:50:21;;;;;;;23.47;22.03;;;;;;;;;;5044098;28;20486;-80
2023/05/18 10:52:49;;;;;;;24.10;22.40;;;;;;;;;;5043376;28;20422;-81
2023/05/18 10:55:17;;;;;;;23.87;21.90;;;;;;;;;;5043868;28;20418;-80
2023/05/18 10:57:46;;;;;;;22.80;21.50;;;;;;;;;;5042350;28;21215;-81
2023/05/18 11:00:14;;;;;;;24.43;22.80;;;;;;;;;;5043116;28;20446;-81
2023/05/18 11:02:42;;;;;;;24.10;22.60;;;;;;;;;;5043755;28;20442;-81
2023/05/18 11:05:09;;;;;;;23.87;22.37;;;;;;;;;;5042386;28;20884;-81
2023/05/18 11:07:37;;;;;;;23.43;22.10;;;;;;;;;;5042007;28;20781;-81
2023/05/18 11:10:08;;;;;;;25.00;23.00;;;;;;;;;;5043209;28;20442;-81
2023/05/18 11:12:36;;;;;;;24.20;22.40;;;;;;;;;;5043229;28;20430;-81
2023/05/18 11:15:05;;;;;;;23.83;21.97;;;;;;;;;;5042943;28;20951;-81
2023/05/18 11:17:32;;;;;;;24.83;23.00;;;;;;;;;;5040756;28;20470;-83
2023/05/18 11:20:14;;;;;;;24.87;23.20;;;;;;;;;;5037601;28;20430;-86
2023/05/18 11:22:43;;;;;;;22.70;21.30;;;;;;;;;;5039208;28;20885;-81
2023/05/18 11:25:10;;;;;;;22.33;20.50;;;;;;;;;;5041229;28;20489;-81
2023/05/18 11:27:38;;;;;;;22.47;20.77;;;;;;;;;;5041997;28;20482;-81
2023/05/18 11:30:26;;;;;;;24.63;22.70;;;;;;;;;;5043457;28;20450;-81
2023/05/18 11:32:53;;;;;;;23.27;21.57;;;;;;;;;;5043797;28;20494;-81
2023/05/18 11:35:24;;;;;;;23.17;21.20;;;;;;;;;;5043103;28;20426;-82
2023/05/18 11:37:51;;;;;;;23.87;22.13;;;;;;;;;;5042674;28;20518;-81
2023/05/18 11:40:42;;;;;;;23.73;21.93;;;;;;;;;;5044173;28;20482;-81
2023/05/18 11:43:18;;;;;;;24.50;22.90;;;;;;;;;;5035945;28;20446;-81
2023/05/18 11:45:52;;;;;;;24.00;22.40;;;;;;;;;;5055360;28;20442;-82
2023/05/18 11:48:21;;;;;;;23.03;21.40;;;;;;;;;;5055077;28;20449;-82
2023/05/18 11:50:48;;;;;;;24.80;23.20;;;;;;;;;;5049193;28;20517;-81
2023/05/18 11:53:16;;;;;;;23.83;22.20;;;;;;;;;;5042920;28;20445;-81
2023/05/18 11:55:44;;;;;;;23.20;21.60;;;;;;;;;;5043447;28;20933;-81
2023/05/18 11:58:17;;;;;;;23.50;21.70;;;;;;;;;;5043829;28;20449;-82
2023/05/18 12:00:45;;;;;;;23.03;21.67;;;;;;;;;;5044523;28;20775;-81
2023/05/18 12:03:12;;;;;;;24.13;22.40;;;;;;;;;;5048693;28;20438;-81
2023/05/18 12:05:40;;;;;;;24.57;22.93;;;;;;;;;;5046735;28;20504;-81
2023/05/18 12:08:08;;;;;;;23.97;22.20;;;;;;;;;;5044765;28;20452;-82
2023/05/18 12:10:36;;;;;;;23.60;22.10;;;;;;;;;;5043303;28;20475;-81
2023/05/18 12:13:17;;;;;;;25.33;23.60;;;;;;;;;;5044018;28;20453;-81
2023/05/18 12:15:46;;;;;;;24.10;22.50;;;;;;;;;;5042757;28;20451;-81
2023/05/18 12:18:13;;;;;;;24.00;22.03;;;;;;;;;;5043182;28;20419;-81
2023/05/18 12:20:40;;;;;;;25.23;23.30;;;;;;;;;;5043726;28;20475;-81
2023/05/18 12:23:08;;;;;;;23.50;22.17;;;;;;;;;;5043523;28;20517;-81
2023/05/18 12:25:36;;;;;;;24.47;22.50;;;;;;;;;;5042418;28;20828;-81
2023/05/18 12:28:03;;;;;;;23.30;21.80;;;;;;;;;;5044505;28;20432;-81
2023/05/18 12:30:34;;;;;;;24.93;23.23;;;;;;;;;;5047584;28;20464;-81
2023/05/18 12:33:02;;;;;;;25.20;23.60;;;;;;;;;;5047167;28;20407;-81
2023/05/18 12:35:30;;;;;;;23.70;22.33;;;;;;;;;;5046101;28;20462;-81
2023/05/18 12:37:59;;;;;;;25.63;23.73;;;;;;;;;;5047089;28;20418;-81
2023/05/18 12:40:26;;;;;;;25.93;23.60;;;;;;;;;;5046200;28;20458;-81
2023/05/18 12:42:53;;;;;;;24.23;22.40;;;;;;;;;;5046771;28;20444;-81
2023/05/18 12:45:22;;;;;;;23.43;21.77;;;;;;;;;;5045641;28;20530;-81
2023/05/18 12:47:52;;;;;;;24.17;22.17;;;;;;;;;;5045651;28;20447;-81
2023/05/18 12:50:21;;;;;;;23.73;21.80;;;;;;;;;;5046431;28;20568;-81
2023/05/18 12:52:49;;;;;;;23.83;22.43;;;;;;;;;;5046929;28;20456;-82
2023/05/18 12:55:20;;;;;;;23.27;21.60;;;;;;;;;;5046555;28;20529;-82
2023/05/18 12:57:47;;;;;;;24.73;23.10;;;;;;;;;;5046054;28;20472;-81
2023/05/18 13:00:15;;;;;;;25.17;23.37;;;;;;;;;;5042027;28;20502;-85
2023/05/18 13:02:42;;;;;;;23.87;22.23;;;;;;;;;;5042756;28;20800;-79
2023/05/18 13:05:09;;;;;;;24.20;22.47;;;;;;;;;;5042645;28;20884;-80
2023/05/18 13:07:38;;;;;;;24.77;22.73;;;;;;;;;;5037641;28;20450;-79
2023/05/18 13:10:06;;;;;;;25.33;23.43;;;;;;;;;;5035626;28;20490;-80
2023/05/18 13:12:43;;;;;;;25.47;23.53;;;;;;;;;;5036262;28;20424;-80
2023/05/18 13:15:11;;;;;;;24.30;22.70;;;;;;;;;;5037059;28;20455;-82
2023/05/18 13:17:38;;;;;;;24.53;22.63;;;;;;;;;;5038927;28;20481;-80
2023/05/18 13:20:13;;;;;;;24.93;22.87;;;;;;;;;;5036620;28;20529;-78
2023/05/18 13:22:41;;;;;;;23.70;22.03;;;;;;;;;;5036214;28;20477;-80
2023/05/18 13:25:09;;;;;;;24.43;22.83;;;;;;;;;;5036612;28;20426;-78
2023/05/18 13:27:36;;;;;;;24.03;22.23;;;;;;;;;;5040316;28;20944;-79
2023/05/18 13:30:03;;;;;;;25.40;23.40;;;;;;;;;;5048223;28;20442;-78
2023/05/18 13:32:30;;;;;;;25.10;23.30;;;;;;;;;;5038629;28;20881;-79
2023/05/18 13:34:57;;;;;;;22.80;21.37;;;;;;;;;;5036435;28;20459;-79
2023/05/18 13:37:24;;;;;;;24.10;22.07;;;;;;;;;;5035950;28;20441;-79
2023/05/18 13:39:53;;;;;;;23.30;21.80;;;;;;;;;;5036213;28;20454;-79
2023/05/18 13:42:20;;;;;;;24.00;22.30;;;;;;;;;;5035732;28;20442;-79
2023/05/18 13:44:47;;;;;;;24.57;22.67;;;;;;;;;;5035852;28;20430;-78
2023/05/18 13:47:14;;;;;;;24.67;23.10;;;;;;;;;;5035715;28;20457;-78
2023/05/18 13:49:41;;;;;;;23.97;22.10;;;;;;;;;;5035775;28;20803;-79
2023/05/18 13:52:08;;;;;;;23.83;22.07;;;;;;;;;;5036783;28;20933;-81
2023/05/18 13:54:35;;;;;;;24.77;23.17;;;;;;;;;;5036701;28;20443;-80
2023/05/18 13:57:03;;;;;;;23.93;22.33;;;;;;;;;;5037030;28;20776;-80
2023/05/18 13:59:33;;;;;;;25.00;23.10;;;;;;;;;;5037445;28;20449;-81
2023/05/18 14:02:00;;;;;;;23.83;22.23;;;;;;;;;;5036960;28;20430;-79
2023/05/18 14:04:27;;;;;;;23.47;21.80;;;;;;;;;;5037008;28;20460;-85
2023/05/18 14:06:54;;;;;;;24.67;22.80;;;;;;;;;;5038219;28;20480;-84
2023/05/18 14:09:21;;;;;;;24.83;22.93;;;;;;;;;;5043036;28;20542;-80
2023/05/18 14:11:48;;;;;;;24.93;22.80;;;;;;;;;;5042720;28;20448;-80
2023/05/18 14:14:17;;;;;;;23.97;22.47;;;;;;;;;;5039060;28;20891;-84
2023/05/18 14:16:44;;;;;;;24.00;22.13;;;;;;;;;;5032372;28;20929;-85
2023/05/18 14:19:11;;;;;;;23.17;21.37;;;;;;;;;;5037803;28;21010;-86
2023/05/18 14:21:38;;;;;;;23.30;21.50;;;;;;;;;;5038243;28;20533;-86